Etusivu
METAR-TAF:

METAR-TAF

Lentoasemat :

Cayo Coco, Kuuba

Leveyspiiri: 22-27-40N, Pituuspiiri: 078-19-42W, korkeus merenpinnasta: 4 m

Tämänhetkinen sää

Tämä raportti tehtiin 59 minuuttia sitten, kello 19.50 UTC
Tuuli 12 kn idästä, vaihdellen koillisen ja idän/kaakon välillä
Lämpötila 32°C
Kosteus 63%
Ilmanpaine 1016 hPa
Näkyvyys: 9000 m
Muutamia pilviä 2000 ft:n korkeudessa

METAR: MUCC 191950Z 08012KT 050V120 9000 FEW020 32/24 Q1016

Aika: 16:49 (20:49 UTC)

Sääennuste

Tämä raportti tehtiin 3 tuntia ja 49 minuuttia sitten, kello 17.00 UTC
Ennuste voimassa 19. päivästä klo 18 UTC - 20. päivään klo 18 UTC
Tuuli 12 kn idästä
Näkyvyys: 9000 m
Hajanaisia pilviä 2000 ft:n korkeudessa
Tulossa
20. päivästä klo 01 UTC - 20. päivään klo 03 UTC
Tuuli 3 kn eri suunnista
Tulossa
20. päivästä klo 15 UTC - 20. päivään klo 17 UTC
Tuuli 12 kn idästä/koillisesta

TAF: MUCC 191700Z 1918/2018 10012KT 9000 SCT020 BECMG 2001/2003 VRB03KT BECMG 2015/2017 07012KT

Säähavainnot ja -ennusteet yli 4000 lentoasemalta (METAR- ja TAF-raportit).

Käytössä olevat sääasemat on merkitty karttaan keltaisilla ja punaisilla pisteillä.

Aseta hiiri pisteen päälle nähdäksesi sääaseman nimen.

Klikkaa sitten nähdäksesi säähavainnot ja -ennusteet.

Kartan vaihtaminen: klikkaa mustalla rastilla varustettuja vihreitä pisteitä, niin voit zoomata sisään; viivalla varustettua vihreää pistettä, niin voit zoomata ulos tai vihreitä nuolia, niin pääset viereisille kartoille.


METAR-TAF: